Time;durP1;ratioP1;P1;durP2;ratioP2;P2;SDS_P1;SDS_P2;PMS_P1;PMS_P2;Temp;Humidity;BMP_temperature;BMP_pressure;BME280_temperature;BME280_humidity;BME280_pressure;Samples;Min_cycle;Max_cycle;Signal;HPM_P1;HPM_P2
2023/06/21 00:00:33;;;;;;;19.17;13.97;;;;;;;20.99;100.00;97213.38;5052239;28;20406;-70
2023/06/21 00:02:59;;;;;;;17.90;15.23;;;;;;;20.98;100.00;97211.78;5052067;28;20401;-70
2023/06/21 00:05:26;;;;;;;19.77;14.30;;;;;;;20.95;100.00;97195.53;5051888;28;20459;-69
2023/06/21 00:07:54;;;;;;;17.75;15.02;;;;;;;20.91;100.00;97195.34;5052048;28;20406;-69
2023/06/21 00:10:23;;;;;;;18.00;15.27;;;;;;;20.89;100.00;97194.91;5051909;28;20413;-69
2023/06/21 00:12:51;;;;;;;18.77;15.02;;;;;;;20.88;100.00;97197.91;5052136;28;20790;-70
2023/06/21 00:15:17;;;;;;;17.48;14.63;;;;;;;20.86;100.00;97192.84;5051666;28;20489;-70
2023/06/21 00:17:44;;;;;;;18.97;15.93;;;;;;;20.84;100.00;97195.84;5052016;28;20477;-71
2023/06/21 00:20:11;;;;;;;18.52;14.63;;;;;;;20.83;100.00;97193.47;5067254;28;20891;-69
2023/06/21 00:22:38;;;;;;;18.08;15.30;;;;;;;20.79;100.00;97193.34;5051555;28;20743;-69
2023/06/21 00:25:07;;;;;;;21.70;15.85;;;;;;;20.82;100.00;97197.31;5051430;28;20427;-69
2023/06/21 00:27:33;;;;;;;21.95;15.85;;;;;;;20.78;100.00;97193.66;5051818;28;20955;-70
2023/06/21 00:30:01;;;;;;;20.00;14.63;;;;;;;20.74;100.00;97192.75;5051649;28;20771;-69
2023/06/21 00:32:27;;;;;;;22.38;16.60;;;;;;;20.74;100.00;97201.59;5051494;28;20421;-69
2023/06/21 00:34:53;;;;;;;19.73;15.73;;;;;;;20.74;100.00;97211.56;5051229;28;20402;-70
2023/06/21 00:37:19;;;;;;;19.63;15.50;;;;;;;20.73;100.00;97212.69;5051165;28;21482;-69
2023/06/21 00:39:45;;;;;;;19.63;15.23;;;;;;;20.69;100.00;97217.91;5051528;28;20402;-70
2023/06/21 00:42:12;;;;;;;18.13;14.48;;;;;;;20.67;100.00;97214.75;5051589;28;20913;-70
2023/06/21 00:44:38;;;;;;;15.68;13.60;;;;;;;20.67;100.00;97212.06;5051452;28;20408;-71
2023/06/21 00:47:06;;;;;;;16.07;13.80;;;;;;;20.69;100.00;97222.50;5051033;28;20405;-71
2023/06/21 00:49:33;;;;;;;19.23;15.07;;;;;;;20.65;100.00;97222.34;5051016;28;20413;-70
2023/06/21 00:52:05;;;;;;;21.17;15.73;;;;;;;20.62;100.00;97227.56;5050451;28;20429;-70
2023/06/21 00:54:34;;;;;;;19.57;15.70;;;;;;;20.57;100.00;97225.84;5051099;28;20451;-71
2023/06/21 00:57:03;;;;;;;18.13;14.50;;;;;;;20.52;100.00;97223.34;5050481;28;20432;-70
2023/06/21 00:59:29;;;;;;;17.15;14.48;;;;;;;20.48;100.00;97225.84;5050511;28;20762;-70
2023/06/21 01:01:56;;;;;;;18.13;15.03;;;;;;;20.45;100.00;97228.38;5049837;28;20446;-70
2023/06/21 01:04:26;;;;;;;17.25;14.85;;;;;;;20.42;100.00;97220.97;5049977;28;20450;-69
2023/06/21 01:06:59;;;;;;;18.63;14.98;;;;;;;20.41;100.00;97236.31;5050553;28;20924;-69
2023/06/21 01:09:32;;;;;;;17.60;15.00;;;;;;;20.38;100.00;97231.53;5050950;28;20405;-69
2023/06/21 01:12:07;;;;;;;17.23;14.53;;;;;;;20.36;100.00;97241.84;5050807;28;20449;-69
2023/06/21 01:14:41;;;;;;;17.63;14.52;;;;;;;20.36;100.00;97246.44;5050622;28;20506;-69
2023/06/21 01:17:10;;;;;;;18.23;14.38;;;;;;;20.31;100.00;97236.59;5050584;28;20405;-69
2023/06/21 01:19:42;;;;;;;16.63;13.27;;;;;;;20.28;100.00;97236.44;5050699;28;20412;-69
2023/06/21 01:22:23;;;;;;;18.50;14.13;;;;;;;20.25;100.00;97237.06;5050972;28;20451;-71
2023/06/21 01:25:02;;;;;;;14.77;13.20;;;;;;;20.24;100.00;97236.28;5050458;28;20397;-69
2023/06/21 01:27:41;;;;;;;15.40;13.52;;;;;;;20.23;100.00;97245.44;5050753;28;20400;-69
2023/06/21 01:30:11;;;;;;;20.90;14.43;;;;;;;20.23;100.00;97239.28;5049336;28;20417;-69
2023/06/21 01:32:37;;;;;;;15.77;13.13;;;;;;;20.19;100.00;97251.78;5050556;28;20401;-69
2023/06/21 01:35:06;;;;;;;17.88;13.95;;;;;;;20.17;100.00;97243.22;5050222;28;20393;-70
2023/06/21 01:37:32;;;;;;;18.40;14.10;;;;;;;20.15;100.00;97246.22;5050510;28;20488;-69
2023/06/21 01:39:59;;;;;;;16.60;13.30;;;;;;;20.14;100.00;97250.03;5050505;28;20725;-69
2023/06/21 01:42:26;;;;;;;18.97;14.13;;;;;;;20.13;100.00;97248.47;5050887;28;20408;-69
2023/06/21 01:44:52;;;;;;;18.95;14.70;;;;;;;20.09;100.00;97252.88;5050078;28;20401;-69
2023/06/21 01:47:21;;;;;;;20.55;14.45;;;;;;;20.06;100.00;97262.38;5050198;28;20440;-69
2023/06/21 01:49:48;;;;;;;17.42;14.18;;;;;;;20.07;100.00;97276.59;5050233;28;20406;-69
2023/06/21 01:52:15;;;;;;;17.45;14.57;;;;;;;20.07;100.00;97276.59;5050365;28;20432;-69
2023/06/21 01:54:42;;;;;;;17.83;13.88;;;;;;;20.03;100.00;97278.31;5048942;28;20827;-69
2023/06/21 01:57:15;;;;;;;16.23;13.40;;;;;;;19.96;100.00;97275.31;5050147;28;20420;-69
2023/06/21 01:59:41;;;;;;;15.85;13.65;;;;;;;19.94;100.00;97272.13;5050455;28;20801;-69
2023/06/21 02:02:10;;;;;;;16.77;14.52;;;;;;;19.93;100.00;97284.78;5050234;28;20409;-70
2023/06/21 02:04:41;;;;;;;17.73;14.63;;;;;;;19.93;100.00;97289.34;5050271;28;20572;-70
2023/06/21 02:07:08;;;;;;;21.05;15.70;;;;;;;19.92;100.00;97288.56;5050083;28;20405;-70
2023/06/21 02:09:35;;;;;;;18.00;14.23;;;;;;;19.92;100.00;97287.81;5050115;28;20393;-69
2023/06/21 02:12:02;;;;;;;18.83;14.07;;;;;;;19.91;100.00;97294.28;5050206;28;20907;-69
2023/06/21 02:14:29;;;;;;;19.25;14.90;;;;;;;19.90;100.00;97298.06;5050110;28;20401;-69
2023/06/21 02:16:55;;;;;;;18.67;14.73;;;;;;;19.90;100.00;97300.75;5054034;28;20429;-69
2023/06/21 02:19:24;;;;;;;17.90;14.57;;;;;;;19.90;100.00;97311.50;5054127;28;20432;-69
2023/06/21 02:21:52;;;;;;;16.67;14.20;;;;;;;19.89;100.00;97305.31;5054016;28;20586;-69
2023/06/21 02:24:18;;;;;;;15.77;13.82;;;;;;;19.87;100.00;97287.94;5053933;28;20413;-69
2023/06/21 02:26:45;;;;;;;17.97;14.10;;;;;;;19.83;100.00;97305.78;5054073;28;20484;-69
2023/06/21 02:29:11;;;;;;;17.52;14.27;;;;;;;19.80;100.00;97296.44;5053979;28;20420;-70
2023/06/21 02:31:37;;;;;;;16.35;14.40;;;;;;;19.82;100.00;97296.13;5053710;28;20420;-70
2023/06/21 02:34:04;;;;;;;19.55;15.98;;;;;;;19.83;100.00;97303.09;5053727;28;20748;-71
2023/06/21 02:36:30;;;;;;;20.73;15.00;;;;;;;19.79;100.00;97302.13;5053650;28;20439;-70
2023/06/21 02:38:58;;;;;;;17.25;14.40;;;;;;;19.76;100.00;97305.44;5053745;28;20401;-70
2023/06/21 02:41:24;;;;;;;16.67;13.70;;;;;;;19.75;100.00;97301.97;5053723;28;20420;-70
2023/06/21 02:43:50;;;;;;;20.48;14.82;;;;;;;19.76;100.00;97300.88;5053668;28;20405;-70
2023/06/21 02:46:18;;;;;;;16.58;14.13;;;;;;;19.74;100.00;97303.06;5053275;28;20408;-70
2023/06/21 02:48:46;;;;;;;16.17;13.87;;;;;;;19.74;100.00;97308.44;5053472;28;20483;-70
2023/06/21 02:51:12;;;;;;;16.60;14.18;;;;;;;19.75;100.00;97303.88;5053443;28;20413;-70
2023/06/21 02:53:38;;;;;;;19.30;14.10;;;;;;;19.73;100.00;97306.84;5053594;28;20959;-70
2023/06/21 02:56:06;;;;;;;18.42;14.52;;;;;;;19.69;100.00;97303.22;5053147;28;20455;-70
2023/06/21 02:58:33;;;;;;;17.38;13.90;;;;;;;19.69;100.00;97313.97;5053566;28;20405;-70
2023/06/21 03:00:59;;;;;;;17.70;14.30;;;;;;;19.65;100.00;97319.16;5053810;28;20755;-70
2023/06/21 03:03:25;;;;;;;20.33;14.20;;;;;;;19.66;100.00;97322.63;5053317;28;20400;-70
2023/06/21 03:05:51;;;;;;;18.02;14.23;;;;;;;19.62;100.00;97319.00;5052857;28;20413;-70
2023/06/21 03:08:20;;;;;;;17.73;13.95;;;;;;;19.62;100.00;97333.19;5053243;28;20401;-70
2023/06/21 03:10:46;;;;;;;19.25;13.95;;;;;;;19.64;100.00;97327.53;5053157;28;20409;-69
2023/06/21 03:13:13;;;;;;;17.27;14.13;;;;;;;19.64;100.00;97330.19;5053149;28;20894;-70
2023/06/21 03:15:40;;;;;;;18.33;14.00;;;;;;;19.64;100.00;97338.25;5052675;28;20398;-70
2023/06/21 03:18:06;;;;;;;17.98;14.43;;;;;;;19.64;100.00;97352.47;5053229;28;20409;-69
2023/06/21 03:20:32;;;;;;;15.75;13.38;;;;;;;19.67;100.00;97354.56;5052889;28;20397;-69
2023/06/21 03:22:58;;;;;;;17.40;13.60;;;;;;;19.71;100.00;97362.78;5052892;28;20467;-70
2023/06/21 03:25:26;;;;;;;15.90;13.73;;;;;;;19.75;100.00;97363.75;5052566;28;20961;-70
2023/06/21 03:27:53;;;;;;;15.07;13.00;;;;;;;19.79;100.00;97359.31;5051823;28;20443;-70
2023/06/21 03:30:21;;;;;;;15.75;12.93;;;;;;;19.82;100.00;97368.66;5052693;28;20509;-70
2023/06/21 03:32:47;;;;;;;15.77;12.80;;;;;;;19.85;100.00;97360.75;5052748;28;20398;-70
2023/06/21 03:35:14;;;;;;;16.20;13.40;;;;;;;19.88;100.00;97370.09;5052483;28;20790;-69
2023/06/21 03:37:41;;;;;;;16.00;13.95;;;;;;;19.90;100.00;97389.41;5052726;28;20408;-69
2023/06/21 03:40:13;;;;;;;15.70;12.82;;;;;;;19.94;100.00;97418.00;5052791;28;20481;-69
2023/06/21 03:42:40;;;;;;;21.27;15.95;;;;;;;20.02;100.00;97470.19;5052557;28;20422;-70
2023/06/21 03:45:07;;;;;;;19.85;16.30;;;;;;;20.07;100.00;97491.59;5052166;28;20401;-70
2023/06/21 03:47:36;;;;;;;20.70;16.40;;;;;;;20.11;100.00;97471.03;5052368;28;20891;-69
2023/06/21 03:50:04;;;;;;;27.15;16.23;;;;;;;20.19;100.00;97528.63;5052260;28;20424;-70
2023/06/21 03:52:30;;;;;;;26.77;17.13;;;;;;;20.10;100.00;97518.63;5052561;28;20751;-71
2023/06/21 03:54:57;;;;;;;27.80;17.83;;;;;;;19.85;100.00;97495.09;5050684;28;20413;-70
2023/06/21 03:57:25;;;;;;;27.73;18.83;;;;;;;19.74;100.00;97460.75;5052185;28;20397;-70
2023/06/21 03:59:52;;;;;;;23.90;18.17;;;;;;;19.65;100.00;97458.00;5052470;28;20411;-70
2023/06/21 04:02:20;;;;;;;32.83;21.08;;;;;;;19.59;100.00;97443.94;5051982;28;20925;-71
2023/06/21 04:04:48;;;;;;;26.45;19.45;;;;;;;19.51;100.00;97449.25;5052005;28;20401;-71
2023/06/21 04:07:14;;;;;;;33.58;21.88;;;;;;;19.48;100.00;97439.09;5051779;28;20420;-71
2023/06/21 04:09:40;;;;;;;28.80;20.10;;;;;;;19.47;100.00;97453.66;5051882;28;20437;-70
2023/06/21 04:12:08;;;;;;;30.80;20.40;;;;;;;19.45;100.00;97453.13;5051333;28;20575;-70
2023/06/21 04:14:34;;;;;;;42.53;25.23;;;;;;;19.44;100.00;97452.34;5042805;28;20457;-71
2023/06/21 04:17:00;;;;;;;37.28;23.25;;;;;;;19.38;100.00;97445.50;5045966;28;20455;-71
2023/06/21 04:19:27;;;;;;;39.17;24.63;;;;;;;19.31;100.00;97435.22;5052198;28;20405;-71
2023/06/21 04:21:55;;;;;;;35.40;23.42;;;;;;;19.22;100.00;97430.88;5052247;28;20778;-71
2023/06/21 04:24:21;;;;;;;36.88;24.15;;;;;;;19.18;100.00;97427.19;5051844;28;20398;-72
2023/06/21 04:26:48;;;;;;;38.50;24.13;;;;;;;19.21;100.00;97440.81;5051697;28;20401;-70
2023/06/21 04:29:16;;;;;;;41.05;26.20;;;;;;;19.18;100.00;97437.94;5052135;28;20433;-70
2023/06/21 04:31:42;;;;;;;36.70;23.83;;;;;;;19.17;100.00;97436.38;5051883;28;20417;-72
2023/06/21 04:34:09;;;;;;;39.42;24.35;;;;;;;19.17;100.00;97436.38;5051878;28;20467;-69
2023/06/21 04:36:35;;;;;;;37.03;23.30;;;;;;;19.19;100.00;97426.09;5051735;28;20411;-69
2023/06/21 04:39:03;;;;;;;34.90;21.25;;;;;;;19.23;100.00;97427.09;5063237;28;20411;-70
2023/06/21 04:41:29;;;;;;;38.73;23.23;;;;;;;19.33;100.00;97432.19;5048566;28;20976;-69
2023/06/21 04:43:55;;;;;;;45.83;26.63;;;;;;;19.35;100.00;97443.44;5051662;28;20421;-71
2023/06/21 04:46:23;;;;;;;38.60;24.95;;;;;;;19.33;100.00;97442.94;5051365;28;20784;-70
2023/06/21 04:48:50;;;;;;;41.17;24.77;;;;;;;19.35;100.00;97443.44;5048212;28;20417;-70
2023/06/21 04:51:16;;;;;;;38.15;23.15;;;;;;;19.37;100.00;97451.97;5040461;28;20426;-70
2023/06/21 04:53:43;;;;;;;44.35;25.50;;;;;;;19.41;100.00;97461.00;5041099;28;20409;-70
2023/06/21 04:56:12;;;;;;;44.33;25.60;;;;;;;19.38;100.00;97455.44;5041869;28;20401;-70
2023/06/21 04:58:39;;;;;;;38.10;24.35;;;;;;;19.35;100.00;97464.91;5051108;28;20424;-70
2023/06/21 05:01:06;;;;;;;39.92;24.95;;;;;;;19.34;100.00;97464.09;5051140;28;20398;-70
2023/06/21 05:03:32;;;;;;;43.90;26.02;;;;;;;19.36;100.00;97463.81;5051075;28;20479;-70
2023/06/21 05:05:59;;;;;;;40.75;25.35;;;;;;;19.38;100.00;97471.56;5065982;28;20405;-70
2023/06/21 05:08:25;;;;;;;47.75;26.27;;;;;;;19.43;100.00;97472.22;5050744;28;20409;-70
2023/06/21 05:10:51;;;;;;;47.55;26.80;;;;;;;19.44;100.00;97476.50;5050609;28;20775;-70
2023/06/21 05:13:19;;;;;;;45.17;27.30;;;;;;;19.46;100.00;97482.38;5050597;28;20887;-70
2023/06/21 05:15:45;;;;;;;44.90;26.80;;;;;;;19.45;100.00;97482.66;5050378;28;20398;-70
2023/06/21 05:18:12;;;;;;;39.97;24.87;;;;;;;19.45;100.00;97474.59;5050817;28;20405;-70
2023/06/21 05:20:38;;;;;;;44.60;24.30;;;;;;;19.48;100.00;97468.63;5051055;28;20477;-70
2023/06/21 05:23:04;;;;;;;35.42;22.88;;;;;;;19.53;100.00;97471.22;5051125;28;20413;-70
2023/06/21 05:25:30;;;;;;;40.83;24.13;;;;;;;19.57;100.00;97470.28;5050780;28;20477;-70
2023/06/21 05:27:57;;;;;;;46.67;26.33;;;;;;;19.63;100.00;97471.75;5050940;28;20450;-70
2023/06/21 05:30:24;;;;;;;50.70;28.63;;;;;;;19.64;100.00;97467.97;5050954;28;20424;-70
2023/06/21 05:32:50;;;;;;;43.10;25.85;;;;;;;19.66;100.00;97483.78;5050609;28;20864;-70
2023/06/21 05:35:16;;;;;;;37.28;23.15;;;;;;;19.67;100.00;97475.41;5050741;28;20432;-71
2023/06/21 05:37:43;;;;;;;34.90;22.17;;;;;;;19.73;100.00;97473.38;5050286;28;20404;-71
2023/06/21 05:40:11;;;;;;;36.25;23.08;;;;;;;19.73;100.00;97481.44;5049512;28;20771;-71
2023/06/21 05:42:37;;;;;;;32.70;20.00;;;;;;;19.76;100.00;97486.22;5050781;28;20393;-71
2023/06/21 05:45:05;;;;;;;34.20;21.30;;;;;;;19.80;100.00;97476.41;5050218;28;20429;-71
2023/06/21 05:47:33;;;;;;;33.88;20.60;;;;;;;19.85;100.00;97478.16;5050530;28;20551;-71
2023/06/21 05:49:59;;;;;;;28.92;18.80;;;;;;;19.90;100.00;97470.78;5065513;28;20409;-71
2023/06/21 05:52:25;;;;;;;32.20;19.03;;;;;;;19.96;100.00;97464.19;5050701;28;20500;-71
2023/06/21 05:54:52;;;;;;;27.92;17.67;;;;;;;20.00;100.00;97459.75;5050329;28;20409;-71
2023/06/21 05:57:18;;;;;;;24.50;16.65;;;;;;;20.09;100.00;97465.19;5050719;28;20496;-72
2023/06/21 05:59:44;;;;;;;26.60;17.67;;;;;;;20.15;100.00;97471.22;5050552;28;20401;-72
2023/06/21 06:02:10;;;;;;;36.72;22.58;;;;;;;20.20;100.00;97465.69;5050475;28;20530;-72
2023/06/21 06:04:39;;;;;;;36.40;22.60;;;;;;;20.10;100.00;97464.88;5050460;28;20826;-72
2023/06/21 06:07:05;;;;;;;37.92;22.17;;;;;;;20.08;100.00;97460.91;5065913;28;21012;-72
2023/06/21 06:09:31;;;;;;;40.92;24.15;;;;;;;20.12;100.00;97456.50;5050466;28;20488;-71
2023/06/21 06:11:57;;;;;;;44.22;26.23;;;;;;;20.12;100.00;97461.88;5050293;28;20507;-71
2023/06/21 06:14:24;;;;;;;37.58;23.77;;;;;;;20.16;100.00;97465.50;5050159;28;20987;-71
2023/06/21 06:16:52;;;;;;;45.22;26.52;;;;;;;20.20;100.00;97473.75;5050280;28;20470;-71
2023/06/21 06:19:18;;;;;;;34.78;22.15;;;;;;;20.23;100.00;97487.38;5050389;28;20406;-71
2023/06/21 06:21:47;;;;;;;35.40;20.30;;;;;;;20.29;100.00;97488.84;5050395;28;20397;-71
2023/06/21 06:24:13;;;;;;;31.38;20.52;;;;;;;20.35;100.00;97479.53;5049931;28;20406;-71
2023/06/21 06:26:39;;;;;;;30.92;20.27;;;;;;;20.35;100.00;97476.84;5049793;28;20405;-71
2023/06/21 06:29:05;;;;;;;45.38;24.42;;;;;;;20.32;100.00;97472.06;5049848;28;20443;-71
2023/06/21 06:31:31;;;;;;;40.90;23.80;;;;;;;20.30;100.00;97479.63;5049824;28;20425;-71
2023/06/21 06:33:58;;;;;;;26.77;18.15;;;;;;;20.33;100.00;97472.84;5049823;28;20471;-71
2023/06/21 06:36:24;;;;;;;31.38;18.83;;;;;;;20.34;100.00;97469.88;5049659;28;20898;-71
2023/06/21 06:38:52;;;;;;;37.08;21.42;;;;;;;20.40;100.00;97468.63;5050143;28;20829;-71
2023/06/21 06:41:19;;;;;;;37.10;22.90;;;;;;;20.44;100.00;97482.25;5050104;28;20402;-71
2023/06/21 06:43:45;;;;;;;40.00;23.90;;;;;;;20.51;100.00;97484.50;5044915;28;20459;-73
2023/06/21 06:46:12;;;;;;;43.88;24.98;;;;;;;20.48;100.00;97485.91;5064094;28;20459;-72
2023/06/21 06:48:38;;;;;;;56.17;29.00;;;;;;;20.27;100.00;97493.72;5028996;28;20401;-71
2023/06/21 06:51:04;;;;;;;35.40;23.17;;;;;;;20.35;100.00;97486.81;5049710;28;20496;-72
2023/06/21 06:53:30;;;;;;;33.70;20.55;;;;;;;20.46;100.00;97488.09;5049705;28;20401;-72
2023/06/21 06:55:59;;;;;;;25.75;17.30;;;;;;;20.60;100.00;97480.69;5048494;28;20455;-71
2023/06/21 06:58:27;;;;;;;44.35;24.50;;;;;;;20.64;100.00;97483.56;5048457;28;20565;-71
2023/06/21 07:00:54;;;;;;;29.35;18.88;;;;;;;20.84;100.00;97491.03;5043605;28;20792;-71
2023/06/21 07:03:20;;;;;;;26.88;19.23;;;;;;;21.02;100.00;97489.16;5038958;28;20403;-71
2023/06/21 07:05:47;;;;;;;22.23;16.38;;;;;;;21.08;100.00;97490.59;5039669;28;20415;-71
2023/06/21 07:08:13;;;;;;;25.63;17.42;;;;;;;21.12;100.00;97484.28;5053118;28;20401;-70
2023/06/21 07:10:40;;;;;;;23.92;16.08;;;;;;;21.03;100.00;97494.25;5044264;28;20419;-70
2023/06/21 07:13:09;;;;;;;17.77;13.32;;;;;;;21.16;100.00;97490.63;5033301;28;20411;-71
2023/06/21 07:15:35;;;;;;;21.60;14.25;;;;;;;21.25;100.00;97493.31;5037540;28;20444;-71
2023/06/21 07:18:01;;;;;;;25.52;14.85;;;;;;;21.21;100.00;97479.69;5053104;28;20484;-71
2023/06/21 07:20:28;;;;;;;16.48;11.75;;;;;;;21.28;100.00;97471.13;5051699;28;20406;-71
2023/06/21 07:22:55;;;;;;;21.02;11.45;;;;;;;21.52;100.00;97473.31;5052844;28;20405;-71
2023/06/21 07:25:21;;;;;;;18.15;10.50;;;;;;;21.31;100.00;97478.59;5048940;28;20766;-71
2023/06/21 07:27:48;;;;;;;13.23;9.30;;;;;;;21.44;100.00;97484.91;5047263;28;20457;-71
2023/06/21 07:30:16;;;;;;;12.50;9.10;;;;;;;21.19;100.00;97481.13;5037120;28;20911;-71
2023/06/21 07:32:43;;;;;;;14.33;9.97;;;;;;;21.26;100.00;97483.34;5048228;28;20912;-71
2023/06/21 07:35:09;;;;;;;15.02;10.65;;;;;;;21.44;100.00;97487.59;5033507;28;20776;-70
2023/06/21 07:37:35;;;;;;;12.23;9.50;;;;;;;21.44;100.00;97487.59;5032841;28;20414;-70
2023/06/21 07:40:02;;;;;;;13.23;8.77;;;;;;;21.36;100.00;97493.78;5033454;28;20468;-70
2023/06/21 07:42:29;;;;;;;11.50;9.75;;;;;;;21.33;100.00;97492.53;5033135;28;20896;-71
2023/06/21 07:44:55;;;;;;;9.80;8.35;;;;;;;21.34;100.00;97487.94;5050277;28;20413;-70
2023/06/21 07:47:23;;;;;;;8.63;7.40;;;;;;;21.36;100.00;97491.09;5049874;28;20447;-70
2023/06/21 07:49:49;;;;;;;10.07;8.02;;;;;;;21.35;100.00;97503.75;5035663;28;20417;-70
2023/06/21 07:52:16;;;;;;;17.43;9.77;;;;;;;21.28;100.00;97498.06;5046937;28;20425;-70
2023/06/21 07:54:47;;;;;;;11.13;8.88;;;;;;;21.36;100.00;97499.16;5040173;28;20806;-70
2023/06/21 07:57:14;;;;;;;10.77;8.05;;;;;;;21.44;100.00;97493.78;5045710;28;20416;-70
2023/06/21 07:59:40;;;;;;;10.25;7.88;;;;;;;21.60;100.00;97499.47;5037272;28;20409;-70
2023/06/21 08:02:06;;;;;;;9.27;7.37;;;;;;;21.69;100.00;97500.25;5040517;28;20814;-70
2023/06/21 08:04:34;;;;;;;9.73;7.20;;;;;;;21.79;100.00;97509.91;5037747;28;20451;-70
2023/06/21 08:07:00;;;;;;;12.68;8.73;;;;;;;21.52;100.00;97508.34;5051793;28;20461;-70
2023/06/21 08:09:27;;;;;;;9.45;8.10;;;;;;;21.60;100.00;97516.41;5044440;28;20469;-70
2023/06/21 08:11:53;;;;;;;12.35;9.00;;;;;;;21.72;100.00;97518.47;5033586;28;20789;-70
2023/06/21 08:14:19;;;;;;;12.63;9.10;;;;;;;21.62;100.00;97514.22;5030660;28;20419;-71
2023/06/21 08:16:45;;;;;;;13.63;8.70;;;;;;;21.47;100.00;97522.78;5048625;28;20789;-71
2023/06/21 08:19:12;;;;;;;12.82;9.18;;;;;;;21.54;100.00;97530.38;5049316;28;20411;-71
2023/06/21 08:21:39;;;;;;;14.65;9.40;;;;;;;21.46;100.00;97529.28;5049000;28;20457;-71
2023/06/21 08:24:06;;;;;;;13.68;8.68;;;;;;;21.50;100.00;97534.81;5030971;28;20419;-71
2023/06/21 08:26:32;;;;;;;13.35;9.27;;;;;;;21.48;100.00;97537.84;5030973;28;20438;-71
2023/06/21 08:28:58;;;;;;;15.45;9.35;;;;;;;21.39;100.00;97552.41;5032668;28;20890;-71
2023/06/21 08:31:24;;;;;;;9.27;7.60;;;;;;;21.38;100.00;97548.91;5041348;28;20511;-71
2023/06/21 08:33:51;;;;;;;12.10;8.90;;;;;;;21.33;100.00;97551.78;5037022;28;20433;-70
2023/06/21 08:36:17;;;;;;;12.88;8.32;;;;;;;21.32;100.00;97550.19;5031351;28;20469;-70
2023/06/21 08:38:45;;;;;;;10.27;7.95;;;;;;;21.32;100.00;97562.84;5031503;28;20489;-70
2023/06/21 08:41:12;;;;;;;9.02;7.43;;;;;;;21.31;100.00;97556.66;5037947;28;20410;-70
2023/06/21 08:43:38;;;;;;;10.65;6.95;;;;;;;21.35;100.00;97562.22;5048231;28;20419;-70
2023/06/21 08:46:06;;;;;;;11.10;8.37;;;;;;;21.32;100.00;97565.53;5032127;28;20419;-70
2023/06/21 08:48:35;;;;;;;12.50;8.50;;;;;;;21.31;100.00;97574.72;5031511;28;20445;-70
2023/06/21 08:51:04;;;;;;;12.15;9.10;;;;;;;21.28;100.00;97576.13;5047655;28;20445;-70
2023/06/21 08:53:37;;;;;;;15.15;9.55;;;;;;;21.31;100.00;97583.59;5031230;28;20406;-70
2023/06/21 08:56:06;;;;;;;11.52;8.90;;;;;;;21.23;100.00;97592.47;5032004;28;20808;-70
2023/06/21 08:58:40;;;;;;;18.97;9.43;;;;;;;21.08;100.00;97585.59;5047892;28;20407;-70
2023/06/21 09:01:10;;;;;;;19.17;9.07;;;;;;;21.11;100.00;97590.38;5045313;28;20407;-70
2023/06/21 09:03:42;;;;;;;13.85;9.60;;;;;;;21.15;100.00;97588.63;5031082;28;20876;-70
2023/06/21 09:06:14;;;;;;;12.93;9.27;;;;;;;21.03;100.00;97582.25;5031782;28;20768;-70
2023/06/21 09:08:43;;;;;;;19.85;10.38;;;;;;;20.95;100.00;97573.06;5048802;28;20896;-70
2023/06/21 09:11:11;;;;;;;10.68;7.85;;;;;;;20.96;100.00;97565.78;5047226;28;20945;-70
2023/06/21 09:13:39;;;;;;;10.77;8.07;;;;;;;20.93;100.00;97569.09;5052772;28;20905;-70
2023/06/21 09:16:06;;;;;;;10.95;8.15;;;;;;;20.87;100.00;97552.31;5043456;28;20406;-70
2023/06/21 09:18:37;;;;;;;10.80;7.40;;;;;;;20.80;100.00;97538.53;5030854;28;20485;-70
2023/06/21 09:21:05;;;;;;;8.90;7.13;;;;;;;20.75;100.00;97509.09;5036804;28;20726;-72
2023/06/21 09:23:31;;;;;;;11.20;7.60;;;;;;;20.68;100.00;97503.34;5050534;28;20425;-72
2023/06/21 09:25:58;;;;;;;12.50;8.57;;;;;;;20.61;100.00;97540.66;5049136;28;20767;-72
2023/06/21 09:28:25;;;;;;;21.60;12.82;;;;;;;20.47;100.00;97541.56;5050691;28;20740;-72
2023/06/21 09:30:52;;;;;;;22.10;12.90;;;;;;;20.33;100.00;97557.03;5047463;28;20490;-72
2023/06/21 09:33:18;;;;;;;24.77;14.07;;;;;;;20.27;100.00;97562.81;5050375;28;20416;-71
2023/06/21 09:35:45;;;;;;;28.83;15.85;;;;;;;20.19;100.00;97561.66;5048272;28;20433;-72
2023/06/21 09:38:22;;;;;;;24.50;13.93;;;;;;;20.12;100.00;97539.81;5048900;28;20918;-72
2023/06/21 09:40:49;;;;;;;20.00;12.40;;;;;;;20.12;100.00;97517.53;5050001;28;20895;-72
2023/06/21 09:43:15;;;;;;;20.02;11.05;;;;;;;20.14;100.00;97501.88;5050563;28;20433;-72
2023/06/21 09:45:43;;;;;;;21.80;12.82;;;;;;;20.17;100.00;97493.97;5050067;28;20525;-71
2023/06/21 09:48:15;;;;;;;22.73;12.73;;;;;;;20.17;100.00;97515.47;5057668;28;20407;-71
2023/06/21 09:50:43;;;;;;;30.13;16.20;;;;;;;20.19;100.00;97529.41;5030606;28;20604;-71
2023/06/21 09:53:11;;;;;;;38.78;18.95;;;;;;;20.17;100.00;97525.44;5034740;28;20510;-71
2023/06/21 09:55:43;;;;;;;33.67;17.48;;;;;;;20.04;100.00;97530.63;5048317;28;20452;-71
2023/06/21 09:58:09;;;;;;;35.90;17.85;;;;;;;20.04;100.00;97529.81;5049073;28;20413;-71
2023/06/21 10:00:36;;;;;;;39.00;21.13;;;;;;;20.00;100.00;97551.13;5059492;28;20419;-71
2023/06/21 10:03:04;;;;;;;40.35;19.98;;;;;;;19.98;100.00;97566.78;5030584;28;20419;-71
2023/06/21 10:05:30;;;;;;;45.50;20.77;;;;;;;19.97;100.00;97594.75;5029720;28;20504;-71
2023/06/21 10:07:57;;;;;;;36.80;19.25;;;;;;;19.89;100.00;97600.84;5045809;28;20515;-71
2023/06/21 10:10:23;;;;;;;39.92;19.38;;;;;;;19.86;100.00;97600.66;5032707;28;20430;-71
2023/06/21 10:12:50;;;;;;;44.97;20.13;;;;;;;19.82;100.00;97608.53;5047877;28;20410;-71
2023/06/21 10:15:18;;;;;;;42.15;19.88;;;;;;;19.79;100.00;97605.66;5063561;28;20417;-71
2023/06/21 10:17:45;;;;;;;35.70;19.10;;;;;;;19.78;100.00;97599.50;5049918;28;20437;-71
2023/06/21 10:20:14;;;;;;;38.22;19.42;;;;;;;19.78;100.00;97614.81;5039408;28;20418;-71
2023/06/21 10:22:43;;;;;;;42.95;20.15;;;;;;;19.77;100.00;97621.31;5047811;28;20402;-70
2023/06/21 10:25:10;;;;;;;46.42;22.25;;;;;;;19.78;100.00;97614.81;5045248;28;20407;-71
2023/06/21 10:27:37;;;;;;;51.72;23.80;;;;;;;19.80;100.00;97612.63;5049406;28;20437;-71
2023/06/21 10:30:06;;;;;;;50.20;23.27;;;;;;;19.82;100.00;97615.81;5050541;28;20428;-71
2023/06/21 10:32:36;;;;;;;66.57;26.85;;;;;;;19.83;100.00;97626.25;5047414;28;20413;-71
2023/06/21 10:35:08;;;;;;;45.28;22.55;;;;;;;19.84;100.00;97624.38;5049111;28;20406;-71
2023/06/21 10:37:48;;;;;;;69.15;29.38;;;;;;;19.80;100.00;97620.69;5034949;28;20468;-71
2023/06/21 10:40:15;;;;;;;59.70;26.58;;;;;;;19.84;100.00;97624.38;5033813;28;20432;-71
2023/06/21 10:42:42;;;;;;;59.50;25.27;;;;;;;19.90;100.00;97621.25;5042005;28;20416;-71
2023/06/21 10:45:12;;;;;;;55.88;25.77;;;;;;;19.97;100.00;97628.88;5053504;28;20405;-71
2023/06/21 10:47:39;;;;;;;56.83;25.55;;;;;;;19.98;100.00;97623.22;5051582;28;20405;-71
2023/06/21 10:50:08;;;;;;;69.53;30.33;;;;;;;20.00;100.00;97629.06;5053573;28;20393;-71
2023/06/21 10:52:36;;;;;;;61.43;26.73;;;;;;;19.99;100.00;97632.88;5052965;28;20461;-71
2023/06/21 10:55:04;;;;;;;67.30;29.65;;;;;;;20.07;100.00;97637.47;5051425;28;20892;-71
2023/06/21 10:57:33;;;;;;;74.90;32.93;;;;;;;20.20;100.00;97637.72;5052569;28;20421;-71
2023/06/21 11:00:02;;;;;;;68.72;29.95;;;;;;;20.31;100.00;97630.97;5053355;28;20401;-71
2023/06/21 11:02:29;;;;;;;67.73;28.23;;;;;;;20.37;100.00;97632.50;5040220;28;20413;-71
2023/06/21 11:05:15;;;;;;;59.50;26.48;;;;;;;20.50;100.00;97634.31;5050629;28;20839;-70
2023/06/21 11:07:54;;;;;;;71.88;31.50;;;;;;;20.50;100.00;97630.81;5039754;28;20462;-71
2023/06/21 11:10:28;;;;;;;70.40;28.92;;;;;;;20.51;100.00;97635.09;5039183;28;20403;-72
2023/06/21 11:12:55;;;;;;;78.93;31.33;;;;;;;20.56;100.00;97635.75;5046768;28;20504;-71